CWB2 weather

Public forecast

Using degrees Celsius for public forecast. Weather courtesy of forecast.io.

Closest aviation weather report (METAR) to Bracebridge West Airfield

Closest report is Muskoka Airport, 6.5 nm (12.1 km) SE. Retrieved 2020/08/12 18:00 UTC (12 minutes ago):

CYQA 121800Z AUTO 25009KT 220V290 9SM CLR 27/15 A3009 RMK SLP189 DENSITY ALT 2300FT

Closest aviation forecast (TAF) to Bracebridge West Airfield

Closest forecast is Muskoka Airport, 6.5 nm (12.1 km) SE. Retrieved 2020/08/12 14:39 UTC (4 hours ago):

TAF CYQA 121338Z 1214/1302 VRB03KT P6SM SKC BECMG 1214/1216 25008KT BECMG 1222/1224 28005KT RMK FCST BASED ON AUTO OBS NXT FCST BY 122000Z